Time;durP1;ratioP1;P1;durP2;ratioP2;P2;SDS_P1;SDS_P2;PMS_P1;PMS_P2;Temp;Humidity;BMP_temperature;BMP_pressure;BME280_temperature;BME280_humidity;BME280_pressure;Samples;Min_cycle;Max_cycle;Signal;HPM_P1;HPM_P2
2023/06/24 00:00:09;;;;;;;19.55;5.90;;;;;;;19.36;100.00;100496.32;1462112;88;21419;-75
2023/06/24 00:02:32;;;;;;;17.57;6.15;;;;;;;19.35;100.00;100491.96;1488698;87;21720;-77
2023/06/24 00:05:00;;;;;;;9.38;4.40;;;;;;;19.35;100.00;100497.33;1473513;88;22322;-76
2023/06/24 00:07:26;;;;;;;12.93;4.55;;;;;;;19.34;100.00;100501.57;1467414;88;21493;-76
2023/06/24 00:09:52;;;;;;;14.55;4.92;;;;;;;19.34;100.00;100484.95;1476190;88;22351;-77
2023/06/24 00:12:19;;;;;;;13.38;6.03;;;;;;;19.35;100.00;100478.55;1477179;88;21494;-77
2023/06/24 00:14:47;;;;;;;14.47;4.62;;;;;;;19.36;100.00;100455.22;1429431;90;21634;-75
2023/06/24 00:17:16;;;;;;;13.53;5.12;;;;;;;19.37;100.00;100459.56;1427663;91;22344;-76
2023/06/24 00:19:44;;;;;;;21.60;5.97;;;;;;;19.37;100.00;100472.47;1450618;89;21509;-76
2023/06/24 00:22:10;;;;;;;14.55;5.20;;;;;;;19.36;100.00;100461.43;1444208;89;21889;-76
2023/06/24 00:24:36;;;;;;;12.90;5.03;;;;;;;19.39;100.00;100455.66;1449336;89;21539;-78
2023/06/24 00:27:03;;;;;;;15.45;4.83;;;;;;;19.39;100.00;100457.00;1452697;89;21502;-78
2023/06/24 00:29:29;;;;;;;9.98;4.30;;;;;;;19.39;100.00;100471.75;1451828;89;21422;-78
2023/06/24 00:31:55;;;;;;;8.75;4.17;;;;;;;19.41;100.00;100484.13;1449751;89;22316;-78
2023/06/24 00:34:23;;;;;;;21.62;4.40;;;;;;;19.44;100.00;100498.48;1449184;89;21437;-76
2023/06/24 00:36:50;;;;;;;10.32;4.03;;;;;;;19.42;100.00;100504.07;1440794;89;21706;-77
2023/06/24 00:39:16;;;;;;;13.80;4.70;;;;;;;19.38;100.00;100508.99;1450421;90;21466;-78
2023/06/24 00:41:43;;;;;;;12.55;4.53;;;;;;;19.37;100.00;100530.16;1433596;90;21575;-77
2023/06/24 00:44:09;;;;;;;13.98;5.35;;;;;;;19.32;100.00;100520.55;1477834;88;21478;-78
2023/06/24 00:46:36;;;;;;;16.90;4.85;;;;;;;19.35;100.00;100518.80;1470823;88;22513;-77
2023/06/24 00:49:03;;;;;;;9.60;4.08;;;;;;;19.37;100.00;100508.70;1465967;88;21492;-77
2023/06/24 00:51:31;;;;;;;14.45;5.80;;;;;;;19.44;100.00;100510.56;1473623;88;22131;-77
2023/06/24 00:53:58;;;;;;;10.68;4.80;;;;;;;19.52;100.00;100498.30;1469770;88;21492;-77
2023/06/24 00:56:35;;;;;;;11.10;4.25;;;;;;;19.56;100.00;100482.93;1475113;88;21634;-78
2023/06/24 00:59:03;;;;;;;12.80;4.78;;;;;;;19.58;100.00;100471.97;1470329;88;21433;-78
2023/06/24 01:01:35;;;;;;;17.27;4.60;;;;;;;19.61;100.00;100472.38;1479484;88;22144;-77
2023/06/24 01:04:03;;;;;;;11.95;4.17;;;;;;;19.59;100.00;100482.52;1478856;88;21492;-78
2023/06/24 01:06:30;;;;;;;7.40;3.75;;;;;;;19.57;100.00;100470.33;1476795;88;21662;-77
2023/06/24 01:09:00;;;;;;;14.98;4.92;;;;;;;19.58;100.00;100476.81;1469387;88;21449;-78
2023/06/24 01:11:28;;;;;;;13.25;4.33;;;;;;;19.59;100.00;100485.69;1477106;88;21610;-79
2023/06/24 01:13:54;;;;;;;12.33;3.42;;;;;;;19.59;100.00;100467.75;1472714;88;21514;-77
2023/06/24 01:16:55;;;;;;;8.63;3.45;;;;;;;19.62;100.00;100465.14;1478632;87;21492;-77
2023/06/24 01:19:27;;;;;;;11.28;3.47;;;;;;;19.63;100.00;100445.34;1447993;90;21460;-79
2023/06/24 01:22:21;;;;;;;9.35;2.90;;;;;;;19.66;100.00;100455.69;1445761;90;21697;-78
2023/06/24 01:25:14;;;;;;;7.50;2.52;;;;;;;19.67;100.00;100454.65;1447884;89;21443;-79
2023/06/24 01:28:22;;;;;;;7.20;2.47;;;;;;;19.69;100.00;100435.14;1483259;86;21493;-78
2023/06/24 01:30:57;;;;;;;11.63;3.60;;;;;;;19.65;100.00;100423.18;1472525;87;21440;-80
2023/06/24 01:33:28;;;;;;;8.08;3.37;;;;;;;19.64;100.00;100420.13;1475538;87;21604;-79
2023/06/24 01:35:55;;;;;;;6.58;2.65;;;;;;;19.64;100.00;100410.73;1490169;87;21618;-78
2023/06/24 01:38:38;;;;;;;6.65;2.80;;;;;;;19.65;100.00;100413.78;1493350;87;21419;-78
2023/06/24 01:41:07;;;;;;;8.05;2.50;;;;;;;19.64;100.00;100404.02;1483227;87;21500;-79
2023/06/24 01:43:36;;;;;;;6.55;2.60;;;;;;;19.64;100.00;100390.60;1474405;88;22580;-79
2023/06/24 01:46:04;;;;;;;5.55;2.62;;;;;;;19.63;100.00;100378.22;1452582;89;22458;-79
2023/06/24 01:48:35;;;;;;;8.05;2.70;;;;;;;19.61;100.00;100368.20;1460983;88;21426;-77
2023/06/24 01:51:15;;;;;;;8.43;3.50;;;;;;;19.58;100.00;100360.05;1448309;89;21496;-78
2023/06/24 01:53:46;;;;;;;10.15;2.67;;;;;;;19.58;100.00;100349.83;1482646;87;21447;-78
2023/06/24 01:56:15;;;;;;;9.93;2.60;;;;;;;19.58;100.00;100349.83;1488414;87;21606;-77
2023/06/24 01:58:45;;;;;;;8.18;2.83;;;;;;;19.55;100.00;100331.45;1492889;87;21723;-79
2023/06/24 02:01:13;;;;;;;8.05;2.83;;;;;;;19.54;100.00;100321.24;1480923;87;21478;-78
2023/06/24 02:03:41;;;;;;;6.47;2.85;;;;;;;19.53;100.00;100328.97;1479663;86;21411;-77
2023/06/24 02:06:13;;;;;;;4.62;2.47;;;;;;;19.55;100.00;100328.77;1449642;89;21525;-78
2023/06/24 02:08:40;;;;;;;8.10;2.20;;;;;;;19.54;100.00;100323.92;1444158;90;21516;-78
2023/06/24 02:11:09;;;;;;;5.97;2.42;;;;;;;19.56;100.00;100314.31;1446798;89;22307;-78
2023/06/24 02:13:37;;;;;;;6.83;2.37;;;;;;;19.56;100.00;100304.91;1446713;89;21557;-78
2023/06/24 02:16:06;;;;;;;4.60;2.75;;;;;;;19.52;100.00;100295.64;1452319;89;21679;-77
2023/06/24 02:18:35;;;;;;;8.10;2.72;;;;;;;19.43;100.00;100295.03;1444746;90;21493;-78
2023/06/24 02:21:03;;;;;;;5.85;2.60;;;;;;;19.42;100.00;100293.89;1438799;90;21546;-78
2023/06/24 02:23:31;;;;;;;5.95;2.45;;;;;;;19.36;100.00;100288.84;1434045;91;21435;-77
2023/06/24 02:25:59;;;;;;;9.33;2.12;;;;;;;19.31;100.00;100285.45;1439358;90;21495;-77
2023/06/24 02:28:26;;;;;;;5.78;2.52;;;;;;;19.23;100.00;100268.23;1435124;90;22207;-77
2023/06/24 02:30:53;;;;;;;9.63;2.72;;;;;;;19.20;100.00;100249.05;1439590;90;21472;-77
2023/06/24 02:33:19;;;;;;;8.95;2.80;;;;;;;19.18;100.00;100235.01;1442001;91;21539;-78
2023/06/24 02:35:46;;;;;;;17.17;3.35;;;;;;;19.12;100.00;100238.00;1434186;91;21510;-77
2023/06/24 02:38:12;;;;;;;5.50;2.77;;;;;;;19.07;100.00;100227.06;1436528;91;21700;-77
2023/06/24 02:40:39;;;;;;;15.32;3.47;;;;;;;19.04;100.00;100231.52;1444373;90;21663;-77
2023/06/24 02:43:05;;;;;;;15.10;3.60;;;;;;;19.02;100.00;100238.93;1429053;91;21480;-76
2023/06/24 02:45:32;;;;;;;11.20;3.25;;;;;;;18.97;100.00;100236.07;1442062;90;21427;-76
2023/06/24 02:47:59;;;;;;;6.37;3.45;;;;;;;18.91;100.00;100242.56;1436044;90;22353;-75
2023/06/24 02:50:26;;;;;;;9.70;3.58;;;;;;;18.86;100.00;100244.21;1435585;91;21398;-75
2023/06/24 02:52:53;;;;;;;11.25;3.40;;;;;;;18.81;100.00;100243.48;1428648;91;21516;-75
2023/06/24 02:55:21;;;;;;;13.35;4.00;;;;;;;18.72;100.00;100252.73;1462938;88;21663;-75
2023/06/24 02:57:47;;;;;;;9.30;3.40;;;;;;;18.70;100.00;100258.80;1473055;87;21463;-76
2023/06/24 03:00:16;;;;;;;14.60;4.30;;;;;;;18.67;100.00;100241.30;1448481;90;21519;-74
2023/06/24 03:02:45;;;;;;;15.90;4.37;;;;;;;18.62;100.00;100237.58;1472219;87;21449;-75
2023/06/24 03:05:11;;;;;;;11.18;4.45;;;;;;;18.60;100.00;100242.31;1478186;87;21484;-75
2023/06/24 03:07:38;;;;;;;13.13;5.78;;;;;;;18.60;100.00;100247.15;1469973;87;22500;-75
2023/06/24 03:10:06;;;;;;;13.93;5.65;;;;;;;18.57;100.00;100244.88;1446227;90;21517;-75
2023/06/24 03:12:33;;;;;;;12.18;4.00;;;;;;;18.59;100.00;100242.01;1477028;87;21625;-75
2023/06/24 03:15:00;;;;;;;18.00;4.97;;;;;;;18.56;100.00;100237.03;1470891;87;21463;-75
2023/06/24 03:17:27;;;;;;;12.75;4.65;;;;;;;18.56;100.00;100230.33;1472827;88;21597;-76
2023/06/24 03:19:54;;;;;;;14.10;5.50;;;;;;;18.56;100.00;100237.88;1476230;88;21448;-75
2023/06/24 03:22:22;;;;;;;17.57;5.33;;;;;;;18.55;100.00;100240.23;1497240;87;21470;-75
2023/06/24 03:24:49;;;;;;;12.00;5.50;;;;;;;18.54;100.00;100247.15;1473615;88;22477;-75
2023/06/24 03:27:15;;;;;;;16.82;6.25;;;;;;;18.53;100.00;100253.03;1470549;88;21466;-75
2023/06/24 03:29:41;;;;;;;13.70;4.35;;;;;;;18.52;100.00;100249.20;1497031;87;21562;-75
2023/06/24 03:32:08;;;;;;;13.20;4.70;;;;;;;18.55;100.00;100258.98;1478174;88;21433;-75
2023/06/24 03:34:34;;;;;;;12.85;4.70;;;;;;;18.56;100.00;100265.17;1470028;87;22340;-75
2023/06/24 03:37:00;;;;;;;15.98;5.00;;;;;;;18.58;100.00;100269.82;1469442;88;21420;-75
2023/06/24 03:39:26;;;;;;;9.78;4.40;;;;;;;18.56;100.00;100273.21;1448479;90;21428;-75
2023/06/24 03:41:52;;;;;;;19.17;5.70;;;;;;;18.54;100.00;100266.73;1445909;89;22322;-75
2023/06/24 03:44:19;;;;;;;17.85;6.25;;;;;;;18.55;100.00;100265.69;1451236;89;21510;-76
2023/06/24 03:46:46;;;;;;;13.72;4.70;;;;;;;18.59;100.00;100272.83;1451436;89;21531;-75
2023/06/24 03:49:12;;;;;;;15.85;5.92;;;;;;;18.60;100.00;100277.16;1458810;89;22373;-76
2023/06/24 03:51:38;;;;;;;18.50;5.30;;;;;;;18.64;100.00;100282.41;1452411;89;21590;-75
2023/06/24 03:54:05;;;;;;;13.32;4.72;;;;;;;18.68;100.00;100290.36;1448694;89;21512;-75
2023/06/24 03:56:31;;;;;;;19.80;5.90;;;;;;;18.76;100.00;100302.27;1460414;89;21951;-77
2023/06/24 03:58:57;;;;;;;16.97;5.08;;;;;;;18.85;100.00;100318.47;1467786;87;21463;-77
2023/06/24 04:01:24;;;;;;;14.58;4.83;;;;;;;18.93;100.00;100339.73;1470331;88;21552;-77
2023/06/24 04:03:50;;;;;;;13.93;4.28;;;;;;;19.04;100.00;100361.07;1502764;87;21455;-76
2023/06/24 04:06:16;;;;;;;14.68;5.28;;;;;;;19.16;100.00;100377.38;1496275;87;22458;-77
2023/06/24 04:08:43;;;;;;;25.80;6.00;;;;;;;19.29;100.00;100385.97;1469764;88;21427;-75
2023/06/24 04:11:09;;;;;;;12.82;5.12;;;;;;;19.37;100.00;100390.62;1470408;88;21502;-74
2023/06/24 04:13:36;;;;;;;13.35;5.47;;;;;;;19.45;100.00;100386.91;1467172;88;21441;-75
2023/06/24 04:16:03;;;;;;;18.82;5.92;;;;;;;19.52;100.00;100381.01;1506732;87;21433;-77
2023/06/24 04:18:29;;;;;;;15.00;5.40;;;;;;;19.61;100.00;100380.28;1475707;88;22358;-74
2023/06/24 04:20:55;;;;;;;14.83;5.15;;;;;;;19.70;100.00;100383.61;1472280;88;22495;-75
2023/06/24 04:23:21;;;;;;;22.80;5.85;;;;;;;19.78;100.00;100383.39;1462367;88;21537;-75
2023/06/24 04:25:48;;;;;;;13.98;5.17;;;;;;;19.84;100.00;100382.55;1472552;88;21610;-75
2023/06/24 04:28:14;;;;;;;8.28;5.20;;;;;;;19.86;100.00;100381.02;1470629;88;21441;-75
2023/06/24 04:30:40;;;;;;;15.83;4.80;;;;;;;19.81;100.00;100378.42;1469623;87;21398;-76
2023/06/24 04:33:06;;;;;;;20.17;8.00;;;;;;;19.82;100.00;100381.44;1454817;89;22243;-76
2023/06/24 04:35:33;;;;;;;18.50;6.12;;;;;;;19.83;100.00;100384.94;1492266;87;21537;-76
2023/06/24 04:37:59;;;;;;;10.68;4.60;;;;;;;19.81;100.00;100394.53;1468737;88;21493;-77
2023/06/24 04:40:25;;;;;;;17.00;4.70;;;;;;;19.79;100.00;100391.75;1471408;88;21574;-77
2023/06/24 04:42:51;;;;;;;20.48;6.08;;;;;;;19.81;100.00;100401.25;1472813;88;22418;-76
2023/06/24 04:45:18;;;;;;;24.95;7.15;;;;;;;19.90;100.00;100413.13;1480607;87;21493;-75
2023/06/24 04:47:44;;;;;;;20.77;5.83;;;;;;;19.94;100.00;100415.19;1479396;88;21441;-75
2023/06/24 04:50:11;;;;;;;15.63;4.58;;;;;;;20.02;100.00;100415.47;1462106;88;21693;-75
2023/06/24 04:52:38;;;;;;;17.07;5.20;;;;;;;20.13;100.00;100419.38;1477367;87;21980;-75
2023/06/24 04:55:06;;;;;;;13.25;5.20;;;;;;;20.18;100.00;100418.23;1476132;88;22447;-75
2023/06/24 04:57:34;;;;;;;17.57;5.90;;;;;;;20.18;100.00;100416.37;1474982;88;21442;-76
2023/06/24 05:00:00;;;;;;;15.32;5.30;;;;;;;20.20;100.00;100422.36;1471033;87;21426;-75
2023/06/24 05:02:26;;;;;;;15.53;5.50;;;;;;;20.24;100.00;100418.20;1447289;88;21448;-75
2023/06/24 05:04:53;;;;;;;18.62;6.00;;;;;;;20.27;100.00;100436.59;1481018;88;21449;-75
2023/06/24 05:07:19;;;;;;;21.93;5.92;;;;;;;20.40;100.00;100437.58;1467020;88;22689;-75
2023/06/24 05:09:47;;;;;;;18.10;5.55;;;;;;;20.40;100.00;100437.58;1471231;88;22888;-75
2023/06/24 05:12:14;;;;;;;21.12;7.08;;;;;;;20.44;100.00;100440.98;1445370;89;21599;-75
2023/06/24 05:14:41;;;;;;;15.32;5.37;;;;;;;20.46;100.00;100446.17;1498392;87;21448;-75
2023/06/24 05:17:07;;;;;;;17.10;5.50;;;;;;;20.48;100.00;100453.48;1474750;88;21566;-75
2023/06/24 05:19:33;;;;;;;16.73;6.53;;;;;;;20.50;100.00;100462.17;1502154;87;21426;-75
2023/06/24 05:21:59;;;;;;;16.67;4.50;;;;;;;20.53;100.00;100472.53;1477310;88;22505;-75
2023/06/24 05:24:26;;;;;;;9.45;4.25;;;;;;;20.69;100.00;100472.06;1461193;88;21493;-75
2023/06/24 05:26:52;;;;;;;13.78;4.55;;;;;;;20.69;100.00;100472.06;1445718;90;21407;-75
2023/06/24 05:29:19;;;;;;;15.23;5.28;;;;;;;20.83;100.00;100482.75;1494411;87;21521;-76
2023/06/24 05:31:46;;;;;;;14.73;5.33;;;;;;;20.91;100.00;100479.82;1499082;87;21418;-76
2023/06/24 05:34:12;;;;;;;16.25;5.22;;;;;;;20.99;100.00;100474.20;1485967;87;21514;-76
2023/06/24 05:36:38;;;;;;;15.15;4.47;;;;;;;21.01;100.00;100474.00;1470682;88;22215;-76
2023/06/24 05:39:07;;;;;;;17.15;4.45;;;;;;;20.99;100.00;100472.86;1467317;88;21389;-76
2023/06/24 05:41:33;;;;;;;13.18;5.15;;;;;;;20.98;100.00;100469.88;1471984;88;21486;-75
2023/06/24 05:44:12;;;;;;;18.42;4.87;;;;;;;20.91;100.00;100467.19;1470034;87;21574;-75
2023/06/24 05:46:38;;;;;;;13.37;4.50;;;;;;;21.00;100.00;100470.45;1481553;87;21463;-76
2023/06/24 05:49:04;;;;;;;16.15;5.35;;;;;;;21.01;100.00;100478.86;1477264;88;21721;-76
2023/06/24 05:51:30;;;;;;;10.70;4.55;;;;;;;20.98;100.00;100475.78;1496897;87;21419;-75
2023/06/24 05:53:57;;;;;;;12.10;4.17;;;;;;;21.05;100.00;100480.06;1474344;87;21583;-76
2023/06/24 05:56:23;;;;;;;10.38;4.03;;;;;;;21.24;100.00;100497.67;1467274;88;21575;-76
2023/06/24 05:58:50;;;;;;;15.65;5.08;;;;;;;21.36;100.00;100504.02;1495808;87;21462;-76
2023/06/24 06:01:16;;;;;;;12.20;4.70;;;;;;;21.43;100.00;100504.00;1491043;87;22468;-77
2023/06/24 06:03:42;;;;;;;17.50;4.67;;;;;;;;;;1505661;87;22424;-78
2023/06/24 06:06:08;;;;;;;20.80;5.20;;;;;;;21.52;100.00;100508.92;1499958;87;21411;-78
2023/06/24 06:08:35;;;;;;;13.85;4.42;;;;;;;21.56;100.00;100509.30;1473355;88;21464;-78
2023/06/24 06:11:04;;;;;;;14.68;4.35;;;;;;;21.57;100.00;100509.59;1486294;87;21411;-78
2023/06/24 06:13:31;;;;;;;11.93;3.57;;;;;;;21.50;100.00;100516.91;1465543;88;22476;-78
2023/06/24 06:15:57;;;;;;;16.80;5.67;;;;;;;21.42;100.00;100509.91;1453409;88;21631;-78
2023/06/24 06:18:24;;;;;;;14.43;4.08;;;;;;;21.39;100.00;100514.38;1473656;88;22419;-79
2023/06/24 06:20:50;;;;;;;15.88;5.12;;;;;;;21.38;100.00;100512.73;1475555;88;22449;-77
2023/06/24 06:23:17;;;;;;;7.25;3.08;;;;;;;21.39;100.00;100514.38;1479382;88;21515;-77
2023/06/24 06:25:43;;;;;;;11.60;3.50;;;;;;;21.43;100.00;100512.08;1473081;88;21477;-78
2023/06/24 06:28:10;;;;;;;7.85;3.62;;;;;;;21.58;100.00;100518.82;1471757;87;21389;-78
2023/06/24 06:30:36;;;;;;;14.28;4.60;;;;;;;21.67;100.00;100517.21;1451522;88;21622;-78
2023/06/24 06:33:03;;;;;;;12.28;5.00;;;;;;;21.64;100.00;100515.77;1494065;87;22314;-80
2023/06/24 06:35:29;;;;;;;13.98;4.30;;;;;;;21.66;100.00;100514.20;1489544;87;21462;-79
2023/06/24 06:37:57;;;;;;;7.72;3.35;;;;;;;21.70;100.00;100520.28;1464787;88;22945;-78
2023/06/24 06:40:24;;;;;;;17.00;4.12;;;;;;;21.71;100.00;100517.06;1494415;86;21396;-79
2023/06/24 06:42:50;;;;;;;8.93;3.65;;;;;;;21.87;100.00;100520.58;1496494;87;22321;-79
2023/06/24 06:45:17;;;;;;;9.50;3.60;;;;;;;21.94;100.00;100522.67;1498391;87;21603;-79
2023/06/24 06:47:43;;;;;;;13.60;4.20;;;;;;;22.01;100.00;100526.16;1475306;88;21441;-77
2023/06/24 06:50:10;;;;;;;14.40;3.62;;;;;;;22.09;100.00;100525.03;1501963;86;21654;-77
2023/06/24 06:52:36;;;;;;;17.55;4.12;;;;;;;22.13;100.00;100526.26;1500080;87;21367;-79
2023/06/24 06:55:02;;;;;;;9.70;4.22;;;;;;;22.19;100.00;100524.58;1492157;87;21529;-79
2023/06/24 06:57:29;;;;;;;15.80;4.33;;;;;;;22.25;100.00;100529.08;1470667;88;21427;-80
2023/06/24 06:59:56;;;;;;;11.35;3.75;;;;;;;22.31;100.00;100525.49;1495308;86;21605;-80
2023/06/24 07:02:23;;;;;;;10.58;3.75;;;;;;;22.46;100.00;100527.83;1473392;88;21471;-80
2023/06/24 07:04:50;;;;;;;10.58;3.52;;;;;;;22.52;100.00;100529.09;1486841;87;21433;-80
2023/06/24 07:07:17;;;;;;;7.45;3.33;;;;;;;22.48;99.92;100531.95;1466305;88;22551;-79
2023/06/24 07:09:43;;;;;;;13.32;4.20;;;;;;;22.38;99.12;100538.37;1501932;87;22056;-80
2023/06/24 07:12:10;;;;;;;10.32;3.87;;;;;;;22.44;100.00;100535.31;1459232;87;21454;-80
2023/06/24 07:14:36;;;;;;;7.45;2.77;;;;;;;22.48;100.00;100533.83;1469433;88;21455;-78
2023/06/24 07:17:02;;;;;;;11.15;3.67;;;;;;;22.49;100.00;100529.55;1445557;90;21503;-78
2023/06/24 07:19:28;;;;;;;10.55;4.95;;;;;;;22.44;99.62;100532.11;1470661;88;21507;-80
2023/06/24 07:21:55;;;;;;;7.25;2.98;;;;;;;22.46;99.45;100527.83;1466030;88;21655;-79
2023/06/24 07:24:21;;;;;;;11.18;4.12;;;;;;;22.45;99.68;100525.66;1460545;88;21375;-79
2023/06/24 07:26:47;;;;;;;12.30;4.12;;;;;;;22.43;100.00;100527.75;1464337;88;21449;-77
2023/06/24 07:29:14;;;;;;;10.85;3.75;;;;;;;22.35;99.56;100529.91;1473066;88;21515;-79
2023/06/24 07:31:40;;;;;;;7.37;2.87;;;;;;;22.44;100.00;100538.85;1438409;88;21648;-79
2023/06/24 07:34:06;;;;;;;12.55;4.08;;;;;;;22.67;100.00;100538.20;1471833;88;22403;-80
2023/06/24 07:36:33;;;;;;;10.35;3.47;;;;;;;22.82;100.00;100535.11;1479687;87;21512;-79
2023/06/24 07:38:59;;;;;;;6.58;3.15;;;;;;;22.95;100.00;100536.84;1474903;88;21463;-79
2023/06/24 07:41:26;;;;;;;8.28;4.17;;;;;;;23.18;100.00;100536.14;1474799;88;21403;-80
2023/06/24 07:43:52;;;;;;;15.03;4.22;;;;;;;23.44;100.00;100532.24;1477207;87;22387;-80
2023/06/24 07:46:18;;;;;;;14.68;3.08;;;;;;;23.46;96.37;100538.78;1491198;87;21507;-79
2023/06/24 07:48:44;;;;;;;8.68;3.45;;;;;;;23.34;94.59;100538.74;1497067;87;21457;-79
2023/06/24 07:51:10;;;;;;;9.93;3.75;;;;;;;23.30;94.64;100541.59;1499588;87;21624;-77
2023/06/24 07:53:37;;;;;;;10.00;3.50;;;;;;;23.25;94.75;100544.98;1477749;88;21396;-77
2023/06/24 07:56:03;;;;;;;9.78;3.47;;;;;;;23.26;95.87;100542.58;1470617;88;21426;-75
2023/06/24 07:58:30;;;;;;;9.35;2.95;;;;;;;23.28;95.77;100548.58;1470428;88;21448;-82
2023/06/24 08:00:56;;;;;;;10.32;3.17;;;;;;;23.31;95.35;100561.63;1499929;87;21610;-79
2023/06/24 08:03:22;;;;;;;12.63;2.65;;;;;;;23.42;96.22;100562.20;1492704;87;21536;-81
2023/06/24 08:05:49;;;;;;;11.30;2.95;;;;;;;23.56;96.08;100568.75;1475224;88;21499;-79
2023/06/24 08:08:18;;;;;;;5.03;2.70;;;;;;;23.60;94.96;100572.13;1476051;88;21626;-80
2023/06/24 08:10:44;;;;;;;6.58;2.62;;;;;;;23.68;94.73;100578.23;1469750;88;21405;-80
2023/06/24 08:13:10;;;;;;;9.55;3.72;;;;;;;23.71;94.43;100569.20;1471148;87;21568;-80
2023/06/24 08:15:36;;;;;;;6.67;2.95;;;;;;;23.85;94.85;100576.55;1474535;87;22285;-80
2023/06/24 08:18:03;;;;;;;9.78;3.58;;;;;;;24.04;94.46;100571.90;1464287;88;21567;-80
2023/06/24 08:20:30;;;;;;;9.10;3.37;;;;;;;24.35;95.23;100571.28;1466862;88;21411;-79
2023/06/24 08:22:56;;;;;;;8.50;3.15;;;;;;;24.44;91.27;100573.95;1451338;88;21521;-80
2023/06/24 08:25:22;;;;;;;10.35;3.20;;;;;;;24.40;91.05;100566.81;1473121;88;21441;-80
2023/06/24 08:27:48;;;;;;;12.80;3.27;;;;;;;24.48;91.77;100569.70;1500309;86;22483;-79
2023/06/24 08:30:15;;;;;;;8.00;3.33;;;;;;;24.43;91.20;100564.20;1456610;88;21531;-80
2023/06/24 08:32:41;;;;;;;13.85;3.08;;;;;;;24.48;91.41;100566.47;1504704;87;21654;-80
2023/06/24 08:35:09;;;;;;;9.48;3.25;;;;;;;24.60;91.13;100565.13;1450402;88;21412;-80
2023/06/24 08:37:37;;;;;;;3.80;2.52;;;;;;;24.73;89.42;100558.09;1499809;87;21551;-82
2023/06/24 08:40:06;;;;;;;;;;;;;;;24.87;89.15;100556.49;1473137;88;21470;-81
2023/06/24 08:42:32;;;;;;;10.63;4.30;;;;;;;25.03;89.10;100558.46;1473687;87;20192;-81
2023/06/24 08:44:59;;;;;;;11.38;2.27;;;;;;;25.19;88.13;100557.71;1475292;87;22646;-80
2023/06/24 08:47:25;;;;;;;13.48;3.58;;;;;;;25.37;86.41;100558.58;1470175;88;21396;-80
2023/06/24 08:49:56;;;;;;;9.33;3.67;;;;;;;25.49;87.78;100560.73;1500125;87;21507;-82
2023/06/24 08:52:27;;;;;;;10.10;2.95;;;;;;;25.56;87.24;100553.26;1474877;88;21507;-81
2023/06/24 08:54:57;;;;;;;8.95;2.85;;;;;;;25.55;86.27;100546.70;1493603;86;22342;-80
2023/06/24 08:57:24;;;;;;;15.38;3.77;;;;;;;25.53;85.78;100548.86;1478636;88;21598;-81
2023/06/24 08:59:50;;;;;;;10.63;3.50;;;;;;;25.38;83.52;100550.77;1465487;88;21693;-81
2023/06/24 09:02:17;;;;;;;8.33;2.87;;;;;;;25.40;84.45;100547.27;1470218;88;21592;-80
2023/06/24 09:04:43;;;;;;;7.12;3.12;;;;;;;25.50;85.13;100550.17;1473101;88;21419;-81
2023/06/24 09:07:10;;;;;;;7.70;2.83;;;;;;;25.66;84.30;100543.12;1476730;87;21610;-81
2023/06/24 09:09:44;;;;;;;8.70;3.22;;;;;;;25.68;81.69;100537.47;1468425;87;22285;-81
2023/06/24 09:12:14;;;;;;;5.62;2.80;;;;;;;25.68;82.45;100534.75;1471037;88;22440;-82
2023/06/24 09:18:32;;;;;;;9.20;2.60;;;;;;;25.80;82.03;100541.73;1474525;88;20349;-82
2023/06/24 09:21:02;;;;;;;5.58;2.42;;;;;;;25.69;77.69;100544.52;1453756;89;21466;-81
2023/06/24 09:23:26;;;;;;;8.70;3.40;;;;;;;25.71;79.77;100533.72;1485585;87;21448;-81
2023/06/24 09:25:58;;;;;;;6.95;2.98;;;;;;;25.92;81.11;100532.73;1456506;89;21489;-82
2023/06/24 09:28:27;;;;;;;6.55;3.20;;;;;;;26.24;82.71;100530.23;1478456;87;22373;-83
2023/06/24 09:31:10;;;;;;;;;;;;;;;26.50;81.02;100524.16;1443704;89;21702;-82
2023/06/24 09:33:36;;;;;;;8.90;3.27;;;;;;;26.52;78.81;100528.78;1474043;87;20830;-81
2023/06/24 09:36:14;;;;;;;13.13;2.72;;;;;;;26.44;78.87;100537.34;1471938;87;21573;-80
2023/06/24 09:38:44;;;;;;;9.65;3.40;;;;;;;26.23;78.63;100534.84;1445963;89;21585;-81
2023/06/24 09:41:12;;;;;;;7.50;3.30;;;;;;;26.33;80.97;100538.27;1481200;87;21448;-83
2023/06/24 09:43:44;;;;;;;12.47;3.70;;;;;;;26.55;80.84;100528.81;1489188;87;23462;-89
2023/06/24 09:46:07;;;;;;;6.28;2.55;;;;;;;26.76;80.87;100529.92;1474445;88;21469;-87
2023/06/24 09:48:35;;;;;;;9.08;3.02;;;;;;;26.93;79.87;100529.31;1483450;87;21565;-87
2023/06/24 09:51:04;;;;;;;7.60;2.92;;;;;;;27.13;79.10;100527.88;1488763;87;21433;-81
2023/06/24 09:53:33;;;;;;;5.20;2.98;;;;;;;27.20;79.17;100527.19;1489053;87;21574;-80
2023/06/24 09:56:02;;;;;;;10.00;2.58;;;;;;;27.12;75.88;100535.76;1446354;90;22376;-80
2023/06/24 09:58:32;;;;;;;;;;;;;;;26.91;77.62;100543.67;1486937;87;21499;-80
2023/06/24 10:01:03;;;;;;;5.58;2.37;;;;;;;26.84;78.42;100541.67;1485470;87;20864;-80
2023/06/24 10:03:36;;;;;;;7.55;3.10;;;;;;;26.64;76.16;100545.48;1483586;87;21593;-81
2023/06/24 10:06:04;;;;;;;11.65;3.10;;;;;;;26.67;78.13;100535.48;1491801;87;21375;-80
2023/06/24 10:08:32;;;;;;;8.70;2.83;;;;;;;26.65;76.33;100541.72;1498577;87;21530;-80
2023/06/24 10:11:00;;;;;;;8.43;2.62;;;;;;;26.81;77.55;100539.46;1483293;87;22247;-81
2023/06/24 10:13:26;;;;;;;9.25;3.20;;;;;;;27.03;77.79;100540.83;1479611;87;22372;-79
2023/06/24 10:15:52;;;;;;;9.75;2.35;;;;;;;27.28;77.35;100534.08;1453518;89;22502;-80
2023/06/24 10:18:35;;;;;;;4.75;2.22;;;;;;;27.35;76.27;100528.70;1476611;87;21522;-79
2023/06/24 10:21:07;;;;;;;7.85;2.90;;;;;;;27.47;75.96;100526.37;1453466;88;22522;-80
2023/06/24 10:23:52;;;;;;;9.58;2.50;;;;;;;27.39;74.18;100522.20;1483189;87;22320;-80
2023/06/24 10:26:28;;;;;;;8.65;2.60;;;;;;;27.27;74.12;100521.00;1483271;87;22231;-80
2023/06/24 10:29:09;;;;;;;10.32;3.47;;;;;;;27.28;74.46;100525.37;1476032;87;21433;-80
2023/06/24 10:31:52;;;;;;;8.08;2.87;;;;;;;27.31;74.83;100521.34;1439708;90;21628;-81
2023/06/24 10:34:44;;;;;;;8.00;2.80;;;;;;;27.32;75.18;100514.27;1449324;90;21494;-82
2023/06/24 10:37:23;;;;;;;8.05;2.80;;;;;;;27.40;75.58;100508.37;1441195;89;21771;-81
2023/06/24 10:39:58;;;;;;;12.58;4.37;;;;;;;27.65;75.84;100514.59;1444317;89;21582;-81
2023/06/24 10:42:43;;;;;;;7.85;2.15;;;;;;;27.94;75.67;100503.94;1448864;89;21626;-81
2023/06/24 10:45:15;;;;;;;8.20;3.12;;;;;;;28.18;75.26;100512.01;1447924;90;21479;-81
2023/06/24 10:47:44;;;;;;;6.83;3.00;;;;;;;28.41;73.96;100511.33;1440871;90;22373;-81
2023/06/24 10:50:16;;;;;;;5.53;2.70;;;;;;;28.47;73.10;100500.23;1444906;89;21472;-81
2023/06/24 10:52:53;;;;;;;20.82;3.77;;;;;;;28.29;72.05;100503.38;1446280;89;21436;-80
2023/06/24 10:55:19;;;;;;;11.63;2.62;;;;;;;28.27;73.08;100499.54;1450106;90;21479;-81
2023/06/24 10:57:46;;;;;;;10.85;2.70;;;;;;;28.49;73.10;100488.54;1435090;89;22352;-81
2023/06/24 11:00:14;;;;;;;8.98;3.45;;;;;;;28.62;72.19;100500.83;1445449;89;21663;-81
2023/06/24 11:02:40;;;;;;;7.70;3.50;;;;;;;28.45;69.82;100493.41;1437807;90;21516;-81
2023/06/24 11:05:07;;;;;;;6.08;2.77;;;;;;;28.44;70.71;100488.50;1425959;90;21413;-81
2023/06/24 11:07:37;;;;;;;9.00;2.75;;;;;;;28.30;68.86;100490.84;1444202;90;21693;-80
2023/06/24 11:10:10;;;;;;;59.05;8.93;;;;;;;28.34;70.03;100487.08;1442542;90;21532;-80
2023/06/24 11:12:39;;;;;;;8.90;3.22;;;;;;;28.50;70.23;100486.08;1441106;90;21628;-81
2023/06/24 11:15:08;;;;;;;9.83;2.90;;;;;;;28.70;70.49;100483.98;1445931;90;21406;-81
2023/06/24 11:17:35;;;;;;;9.00;2.52;;;;;;;28.91;69.36;100480.78;1439203;89;21391;-81
2023/06/24 11:20:08;;;;;;;9.53;3.42;;;;;;;29.00;70.12;100481.92;1441997;90;21620;-80
2023/06/24 11:22:35;;;;;;;6.72;2.90;;;;;;;29.03;70.60;100477.84;1436500;90;21443;-80
2023/06/24 11:25:02;;;;;;;5.90;2.40;;;;;;;28.81;68.63;100474.50;1435565;90;21583;-80